Time;durP1;ratioP1;P1;durP2;ratioP2;P2;SDS_P1;SDS_P2;PMS_P1;PMS_P2;Temp;Humidity;BMP_temperature;BMP_pressure;BME280_temperature;BME280_humidity;BME280_pressure;Samples;Min_cycle;Max_cycle;Signal;HPM_P1;HPM_P2
2022/12/19 18:19:24;;;;;;;;;;;;;;;;;;942932;31;19903;31
2022/12/19 18:19:55;;;;;;;;;;;;;;;;;;947248;27;19899;-79
2022/12/19 18:20:27;;;;;;;;;;;;;;;;;;946599;27;19910;-78
2022/12/19 18:21:00;;;;;;;;;;;;;;;;;;946493;27;19903;-78
2022/12/19 18:21:31;;;;;;;;;;;;;;;;;;946249;27;19909;-78
2022/12/19 18:22:04;;;;;;;;;;;;;;;;;;946494;27;20418;-80
2022/12/19 18:22:35;;;;;;;;;;;;;;;;;;946375;27;19903;-79
2022/12/19 18:23:11;;;;;;;;;;;;;;;;;;946725;27;19908;-79
2022/12/19 18:23:42;;;;;;;;;;;;;;;;;;946398;27;19914;-77
2022/12/19 18:24:16;;;;;;;;;;;;;;;;;;946083;27;19907;-79
2022/12/19 18:24:47;;;;;;;;;;;;;;;;;;946473;27;19903;-80
2022/12/19 18:25:18;;;;;;;;;;;;;;;;;;946690;27;19904;-77
2022/12/19 18:25:52;;;;;;;;;;;;;;;;;;946878;27;19931;-79
2022/12/19 18:26:23;;;;;;;;;;;;;;;;;;946131;27;19903;-80
2022/12/19 18:26:57;;;;;;;;;;;;;;;;;;946362;27;19907;-79
2022/12/19 18:27:27;;;;;;;;;;;;;;;;;;946596;27;20192;-80
2022/12/19 18:27:58;;;;;;;;;;;;;;;;;;946735;27;19907;-81
2022/12/19 18:28:31;;;;;;;;;;;;;;;;;;946549;27;19903;-79
2022/12/19 18:29:02;;;;;;;;;;;;;;;;;;946482;27;19907;-80
2022/12/19 18:29:33;;;;;;;;;;;;;;;;;;946328;27;19907;-78
2022/12/19 18:30:10;;;;;;;;;;;;;;;;;;946719;27;19907;-81
2022/12/19 18:30:42;;;;;;;;;;;;;;;;;;946652;27;19961;-78
2022/12/19 18:31:17;;;;;;;;;;;;;;;;;;946842;27;19957;-78
2022/12/19 18:31:47;;;;;;;;;;;;;;;;;;946013;27;19903;-80
2022/12/19 18:32:19;;;;;;;;;;;;;;;;;;946353;27;20168;-77
2022/12/19 18:32:54;;;;;;;;;;;;;;;;;;946525;27;19907;-81
2022/12/19 18:33:25;;;;;;;;;;;;;;;;;;946799;27;19918;-79
2022/12/19 18:33:59;;;;;;;;;;;;;;;;;;946585;27;19910;-78
2022/12/19 18:34:34;;;;;;;;;;;;;;;;;;946381;27;19915;-80
2022/12/19 18:35:08;;;;;;;;;;;;;;;;;;946508;27;20263;-79
2022/12/19 18:35:40;;;;;;;;;;;;;;;;;;946459;27;20408;-79
2022/12/19 18:36:17;;;;;;;;;;;;;;;;;;946677;27;20256;-79
2022/12/19 18:36:48;;;;;;;;;;;;;;;;;;946356;27;19903;-79
2022/12/19 18:37:22;;;;;;;;;;;;;;;;;;946360;27;19918;-77
2022/12/19 18:37:53;;;;;;;;;;;;;;;;;;946574;27;20598;-78
2022/12/19 18:38:26;;;;;;;;;;;;;;;;;;946879;27;19896;-81
2022/12/19 18:38:57;;;;;;;;;;;;;;;;;;946620;27;19914;-79
2022/12/19 18:39:32;;;;;;;;;;;;;;;;;;946422;27;19903;-79
2022/12/19 18:40:05;;;;;;;;;;;;;;;;;;946230;27;19974;-79
2022/12/19 18:40:36;;;;;;;;;;;;;;;;;;946661;27;19899;-79
2022/12/19 18:41:11;;;;;;;;;;;;;;;;;;946759;27;20171;-79
2022/12/19 18:41:41;;;;;;;;;;;;;;;;;;946340;27;19903;-79
2022/12/19 18:42:20;;;;;;;;;;;;;;;;;;946123;27;20012;-79
2022/12/19 18:42:51;;;;;;;;;;;;;;;;;;946312;27;19908;-79
2022/12/19 18:43:24;;;;;;;;;;;;;;;;;;946778;27;19911;-79
2022/12/19 18:43:55;;;;;;;;;;;;;;;;;;946519;27;20239;-80
2022/12/19 18:44:28;;;;;;;;;;;;;;;;;;946574;27;19915;-79
2022/12/19 18:44:59;;;;;;;;;;;;;;;;;;946194;27;19910;-79
2022/12/19 18:45:33;;;;;;;;;;;;;;;;;;946539;27;19914;-80
2022/12/19 18:46:07;;;;;;;;;;;;;;;;;;946523;27;19904;-79
2022/12/19 18:46:37;;;;;;;;;;;;;;;;;;946414;27;20218;-80
2022/12/19 18:47:19;;;;;;;;;;;;;;;;;;946370;27;19916;-79
2022/12/19 18:47:53;;;;;;;;;;;;;;;;;;946233;27;19923;-79
2022/12/19 18:48:27;;;;;;;;;;;;;;;;;;946823;27;19919;-78
2022/12/19 18:48:58;;;;;;;;;;;;;;;;;;946566;27;20256;-79
2022/12/19 18:49:35;;;;;;;;;;;;;;;;;;946518;27;19908;-79
2022/12/19 18:50:12;;;;;;;;;;;;;;;;;;945847;27;19903;-79
2022/12/19 18:50:43;;;;;;;;;;;;;;;;;;946127;27;19926;-80
2022/12/19 18:51:17;;;;;;;;;;;;;;;;;;946548;27;19932;-79
2022/12/19 18:51:47;;;;;;;;;;;;;;;;;;946566;27;20256;-78
2022/12/19 18:52:21;;;;;;;;;;;;;;;;;;946352;27;19904;-79
2022/12/19 18:52:52;;;;;;;;;;;;;;;;;;945988;27;19914;-79
2022/12/19 18:53:28;;;;;;;;;;;;;;;;;;946188;27;19904;-79
2022/12/19 18:53:59;;;;;;;;;;;;;;;;;;946584;27;19907;-79
2022/12/19 18:54:32;;;;;;;;;;;;;;;;;;946435;27;19907;-79
2022/12/19 18:55:11;;;;;;;;;;;;;;;;;;945551;27;19904;-79
2022/12/19 18:55:44;;;;;;;;;;;;;;;;;;945416;27;19903;-79
2022/12/19 18:56:15;;;;;;;;;;;;;;;;;;945965;27;19918;-79
2022/12/19 18:56:48;;;;;;;;;;;;;;;;;;946132;27;19918;-78
2022/12/19 18:57:19;;;;;;;;;;;;;;;;;;946349;27;19907;-78
2022/12/19 18:57:49;;;;;;;;;;;;;;;;;;945576;27;19907;-79
2022/12/19 18:58:23;;;;;;;;;;;;;;;;;;945421;27;20221;-80
2022/12/19 18:58:53;;;;;;;;;;;;;;;;;;945550;27;19907;-79
2022/12/19 18:59:27;;;;;;;;;;;;;;;;;;945703;27;19914;-80
2022/12/19 18:59:57;;;;;;;;;;;;;;;;;;945751;27;19903;-79
2022/12/19 19:00:28;;;;;;;;;;;;;;;;;;945586;27;19907;-80
2022/12/19 19:01:03;;;;;;;;;;;;;;;;;;945581;27;19915;-78
2022/12/19 19:01:35;;;;;;;;;;;;;;;;;;945582;27;19945;-79
2022/12/19 19:02:21;;;;;;;;;;;;;;;;;;945480;27;20157;-79
2022/12/19 19:02:53;;;;;;;;;;;;;;;;;;945272;27;19915;-78
2022/12/19 19:03:29;;;;;;;;;;;;;;;;;;945645;27;19930;-78
2022/12/19 19:03:59;;;;;;;;;;;;;;;;;;945701;27;20381;-79
2022/12/19 19:04:33;;;;;;;;;;;;;;;;;;946042;27;19908;-79
2022/12/19 19:05:08;;;;;;;;;;;;;;;;;;945841;27;19908;-79
2022/12/19 19:05:45;;;;;;;;;;;;;;;;;;946130;27;19904;-79
2022/12/19 19:06:18;;;;;;;;;;;;;;;;;;946220;27;19907;-79
2022/12/19 19:06:50;;;;;;;;;;;;;;;;;;945890;27;19911;-79
2022/12/19 19:07:23;;;;;;;;;;;;;;;;;;946089;27;20220;-79
2022/12/19 19:07:55;;;;;;;;;;;;;;;;;;946292;27;20140;-80
2022/12/19 19:08:29;;;;;;;;;;;;;;;;;;946113;27;19911;-79
2022/12/19 19:09:00;;;;;;;;;;;;;;;;;;946081;27;19903;-79
2022/12/19 19:09:34;;;;;;;;;;;;;;;;;;946008;27;19911;-78
2022/12/19 19:10:13;;;;;;;;;;;;;;;;;;946010;27;19903;-80
2022/12/19 19:10:47;;;;;;;;;;;;;;;;;;946301;27;19904;-80
2022/12/19 19:11:19;;;;;;;;;;;;;;;;;;946007;27;19908;-80
2022/12/19 19:11:50;;;;;;;;;;;;;;;;;;945956;27;20236;-79
2022/12/19 19:12:23;;;;;;;;;;;;;;;;;;946117;27;19967;-79
2022/12/19 19:12:54;;;;;;;;;;;;;;;;;;946089;27;19907;-83
2022/12/19 19:13:27;;;;;;;;;;;;;;;;;;945953;27;19914;-80
2022/12/19 19:13:58;;;;;;;;;;;;;;;;;;946011;27;19907;-78
2022/12/19 19:14:31;;;;;;;;;;;;;;;;;;946095;27;19903;-79
2022/12/19 19:15:02;;;;;;;;;;;;;;;;;;945958;27;19966;-79
2022/12/19 19:15:36;;;;;;;;;;;;;;;;;;945921;27;19953;-80
2022/12/19 19:16:15;;;;;;;;;;;;;;;;;;946020;27;19932;-79
2022/12/19 19:16:46;;;;;;;;;;;;;;;;;;945978;27;19918;-79
2022/12/19 19:17:25;;;;;;;;;;;;;;;;;;945821;27;19914;-79
2022/12/19 19:17:58;;;;;;;;;;;;;;;;;;944974;27;19903;-79
2022/12/19 19:18:30;;;;;;;;;;;;;;;;;;945926;27;19981;-79
2022/12/19 19:19:06;;;;;;;;;;;;;;;;;;945819;27;19957;-79
2022/12/19 19:19:37;;;;;;;;;;;;;;;;;;945613;27;19910;-79
2022/12/19 19:20:08;;;;;;;;;;;;;;;;;;945985;27;19918;-78
2022/12/19 19:20:45;;;;;;;;;;;;;;;;;;945810;27;19907;-79
2022/12/19 19:21:17;;;;;;;;;;;;;;;;;;945689;27;19904;-78
2022/12/19 19:21:50;;;;;;;;;;;;;;;;;;945954;27;19911;-79
2022/12/19 19:22:21;;;;;;;;;;;;;;;;;;945859;27;19907;-79
2022/12/19 19:22:51;;;;;;;;;;;;;;;;;;945923;27;19910;-79
2022/12/19 19:23:26;;;;;;;;;;;;;;;;;;945867;27;19908;-78
2022/12/19 19:23:58;;;;;;;;;;;;;;;;;;945768;27;19903;-78
2022/12/19 19:24:32;;;;;;;;;;;;;;;;;;946414;27;19903;-80
2022/12/19 19:25:02;;;;;;;;;;;;;;;;;;946418;27;19915;-79
2022/12/19 19:25:33;;;;;;;;;;;;;;;;;;946352;27;19958;-79
2022/12/19 19:26:06;;;;;;;;;;;;;;;;;;946526;27;19915;-79
2022/12/19 19:26:37;;;;;;;;;;;;;;;;;;945828;27;19907;-78
2022/12/19 19:27:08;;;;;;;;;;;;;;;;;;946502;27;19907;-79
2022/12/19 19:27:41;;;;;;;;;;;;;;;;;;946388;27;19908;-79
2022/12/19 19:28:12;;;;;;;;;;;;;;;;;;946599;27;19915;-79
2022/12/19 19:28:42;;;;;;;;;;;;;;;;;;946424;27;19914;-79
2022/12/19 19:29:17;;;;;;;;;;;;;;;;;;945906;27;19922;-81
2022/12/19 19:29:48;;;;;;;;;;;;;;;;;;946281;27;19904;-80
2022/12/19 19:30:18;;;;;;;;;;;;;;;;;;944510;27;19918;-80
2022/12/19 19:30:53;;;;;;;;;;;;;;;;;;944120;27;19908;-79
2022/12/19 19:31:25;;;;;;;;;;;;;;;;;;943854;27;20141;-79
2022/12/19 19:31:56;;;;;;;;;;;;;;;;;;943462;27;19907;-79
2022/12/19 19:32:29;;;;;;;;;;;;;;;;;;944095;27;19911;-78
2022/12/19 19:33:02;;;;;;;;;;;;;;;;;;944036;27;19907;-79
2022/12/19 19:33:35;;;;;;;;;;;;;;;;;;944173;27;19937;-81
2022/12/19 19:34:10;;;;;;;;;;;;;;;;;;943716;27;19920;-79
2022/12/19 19:34:42;;;;;;;;;;;;;;;;;;943575;27;19904;-81
2022/12/19 19:35:15;;;;;;;;;;;;;;;;;;944115;27;19908;-79
2022/12/19 19:35:52;;;;;;;;;;;;;;;;;;943911;27;19903;-80
2022/12/19 19:36:26;;;;;;;;;;;;;;;;;;944080;27;19919;-79
2022/12/19 19:37:02;;;;;;;;;;;;;;;;;;943620;27;19958;-79
2022/12/19 19:37:33;;;;;;;;;;;;;;;;;;943436;27;20317;-78
2022/12/19 19:38:06;;;;;;;;;;;;;;;;;;943656;27;19965;-79
2022/12/19 19:38:39;;;;;;;;;;;;;;;;;;943343;27;19928;-79
2022/12/19 19:39:10;;;;;;;;;;;;;;;;;;943317;27;19907;-79
2022/12/19 19:39:41;;;;;;;;;;;;;;;;;;943200;27;19904;-79
2022/12/19 19:40:15;;;;;;;;;;;;;;;;;;943652;27;19908;-79
2022/12/19 19:40:45;;;;;;;;;;;;;;;;;;943409;27;19919;-80
2022/12/19 19:41:16;;;;;;;;;;;;;;;;;;943303;27;19907;-79
2022/12/19 19:41:49;;;;;;;;;;;;;;;;;;943346;27;19911;-80
2022/12/19 19:42:20;;;;;;;;;;;;;;;;;;943497;27;19907;-78
2022/12/19 19:42:50;;;;;;;;;;;;;;;;;;943284;27;19950;-78
2022/12/19 19:43:23;;;;;;;;;;;;;;;;;;943400;27;20199;-76
2022/12/19 19:43:54;;;;;;;;;;;;;;;;;;943329;27;19907;-78
2022/12/19 19:44:25;;;;;;;;;;;;;;;;;;943292;27;19907;-78
2022/12/19 19:44:58;;;;;;;;;;;;;;;;;;943513;27;19915;-78
2022/12/19 19:45:29;;;;;;;;;;;;;;;;;;943318;27;20186;-79
2022/12/19 19:45:59;;;;;;;;;;;;;;;;;;943306;27;19953;-79
2022/12/19 19:46:33;;;;;;;;;;;;;;;;;;943430;27;20267;-80
2022/12/19 19:47:04;;;;;;;;;;;;;;;;;;943193;27;20143;-78
2022/12/19 19:47:36;;;;;;;;;;;;;;;;;;942823;27;19911;-79
2022/12/19 19:48:09;;;;;;;;;;;;;;;;;;942888;27;20322;-78
2022/12/19 19:48:41;;;;;;;;;;;;;;;;;;942669;27;20548;-80
2022/12/19 19:49:12;;;;;;;;;;;;;;;;;;942957;27;19961;-78
2022/12/19 19:49:46;;;;;;;;;;;;;;;;;;943548;27;19954;-79
2022/12/19 19:50:17;;;;;;;;;;;;;;;;;;943454;27;19926;-78
2022/12/19 19:50:53;;;;;;;;;;;;;;;;;;943183;27;19911;-79
2022/12/19 19:51:23;;;;;;;;;;;;;;;;;;943273;27;20145;-79
2022/12/19 19:51:54;;;;;;;;;;;;;;;;;;943235;27;19945;-79
2022/12/19 19:52:27;;;;;;;;;;;;;;;;;;943215;27;19903;-78
2022/12/19 19:52:58;;;;;;;;;;;;;;;;;;943217;27;19908;-79
2022/12/19 19:53:31;;;;;;;;;;;;;;;;;;943358;27;19907;-79
2022/12/19 19:54:02;;;;;;;;;;;;;;;;;;943151;27;19918;-78
2022/12/19 19:54:33;;;;;;;;;;;;;;;;;;943107;27;19908;-79
2022/12/19 19:55:07;;;;;;;;;;;;;;;;;;943397;27;19922;-78
2022/12/19 19:55:37;;;;;;;;;;;;;;;;;;943163;27;20231;-77
2022/12/19 19:56:08;;;;;;;;;;;;;;;;;;943416;27;19922;-79
2022/12/19 19:56:41;;;;;;;;;;;;;;;;;;943334;27;19911;-78
2022/12/19 19:57:12;;;;;;;;;;;;;;;;;;943384;27;19911;-79
2022/12/19 19:57:43;;;;;;;;;;;;;;;;;;943127;27;19914;-79
2022/12/19 19:58:16;;;;;;;;;;;;;;;;;;943154;27;19936;-79
2022/12/19 19:58:47;;;;;;;;;;;;;;;;;;943344;27;19918;-79
2022/12/19 19:59:17;;;;;;;;;;;;;;;;;;943081;27;19914;-78
2022/12/19 19:59:51;;;;;;;;;;;;;;;;;;943214;27;20148;-78
2022/12/19 20:00:21;;;;;;;;;;;;;;;;;;943091;27;19903;-79
2022/12/19 20:00:52;;;;;;;;;;;;;;;;;;943355;27;19907;-79
2022/12/19 20:01:26;;;;;;;;;;;;;;;;;;943495;27;19915;-79
2022/12/19 20:01:56;;;;;;;;;;;;;;;;;;943361;27;19918;-79
2022/12/19 20:02:29;;;;;;;;;;;;;;;;;;943213;27;19919;-79
2022/12/19 20:03:00;;;;;;;;;;;;;;;;;;943138;27;19918;-79
2022/12/19 20:03:33;;;;;;;;;;;;;;;;;;943371;27;19907;-78
2022/12/19 20:04:04;;;;;;;;;;;;;;;;;;943157;27;19903;-79
2022/12/19 20:04:38;;;;;;;;;;;;;;;;;;943183;27;19903;-80
2022/12/19 20:05:09;;;;;;;;;;;;;;;;;;943257;27;19918;-80
2022/12/19 20:05:42;;;;;;;;;;;;;;;;;;943179;27;19910;-78
2022/12/19 20:06:16;;;;;;;;;;;;;;;;;;943050;27;19904;-79
2022/12/19 20:06:47;;;;;;;;;;;;;;;;;;943110;27;19953;-78
2022/12/19 20:07:20;;;;;;;;;;;;;;;;;;943040;27;19965;-79
2022/12/19 20:07:51;;;;;;;;;;;;;;;;;;942940;27;19903;-78
2022/12/19 20:08:22;;;;;;;;;;;;;;;;;;943478;27;19933;-79
2022/12/19 20:08:55;;;;;;;;;;;;;;;;;;943224;27;19907;-80
2022/12/19 20:09:26;;;;;;;;;;;;;;;;;;943391;27;19914;-79
2022/12/19 20:09:57;;;;;;;;;;;;;;;;;;943126;27;19908;-79
2022/12/19 20:10:30;;;;;;;;;;;;;;;;;;943339;27;19957;-79
2022/12/19 20:11:01;;;;;;;;;;;;;;;;;;943260;27;19907;-78
2022/12/19 20:11:31;;;;;;;;;;;;;;;;;;943128;27;19918;-79
2022/12/19 20:12:05;;;;;;;;;;;;;;;;;;943502;27;19919;-79
2022/12/19 20:12:35;;;;;;;;;;;;;;;;;;942836;27;19913;-79
2022/12/19 20:13:06;;;;;;;;;;;;;;;;;;943156;27;19915;-78
2022/12/19 20:13:40;;;;;;;;;;;;;;;;;;943108;27;19914;-79
2022/12/19 20:14:10;;;;;;;;;;;;;;;;;;943367;27;20316;-79
2022/12/19 20:14:41;;;;;;;;;;;;;;;;;;943209;27;20036;-79
2022/12/19 20:15:14;;;;;;;;;;;;;;;;;;943038;27;19944;-78
2022/12/19 20:15:44;;;;;;;;;;;;;;;;;;943011;27;19914;-79
2022/12/19 20:16:16;;;;;;;;;;;;;;;;;;943328;27;19918;-79
2022/12/19 20:16:50;;;;;;;;;;;;;;;;;;943262;27;19907;-79
2022/12/19 20:17:20;;;;;;;;;;;;;;;;;;943201;27;19904;-79
2022/12/19 20:17:51;;;;;;;;;;;;;;;;;;943299;27;20144;-79
2022/12/19 20:18:25;;;;;;;;;;;;;;;;;;943409;27;19911;-79
2022/12/19 20:18:55;;;;;;;;;;;;;;;;;;943347;27;19919;-79
2022/12/19 20:19:29;;;;;;;;;;;;;;;;;;942993;27;19912;-78
2022/12/19 20:19:59;;;;;;;;;;;;;;;;;;943224;27;19908;-79
2022/12/19 20:20:34;;;;;;;;;;;;;;;;;;943298;27;20249;-79
2022/12/19 20:21:06;;;;;;;;;;;;;;;;;;943396;27;20306;-77
2022/12/19 20:21:41;;;;;;;;;;;;;;;;;;942857;27;19958;-79
2022/12/19 20:22:12;;;;;;;;;;;;;;;;;;943102;27;19914;-79
2022/12/19 20:22:45;;;;;;;;;;;;;;;;;;943053;27;19907;-78
2022/12/19 20:23:16;;;;;;;;;;;;;;;;;;942852;27;20151;-79
2022/12/19 20:23:49;;;;;;;;;;;;;;;;;;943550;27;19908;-78
2022/12/19 20:24:20;;;;;;;;;;;;;;;;;;943287;27;19911;-79
2022/12/19 20:24:53;;;;;;;;;;;;;;;;;;943314;27;20243;-78
2022/12/19 20:25:24;;;;;;;;;;;;;;;;;;943202;27;20148;-78
2022/12/19 20:26:01;;;;;;;;;;;;;;;;;;943167;27;19907;-79
2022/12/19 20:26:32;;;;;;;;;;;;;;;;;;943301;27;19914;-79
2022/12/19 20:27:07;;;;;;;;;;;;;;;;;;943851;27;20240;-79
2022/12/19 20:27:38;;;;;;;;;;;;;;;;;;944499;27;19910;-80
2022/12/19 20:29:51;;;;;;;;;;;;;;;;;;944522;27;19922;-79
2022/12/19 20:30:21;;;;;;;;;;;;;;;;;;944381;27;19896;-79
2022/12/19 20:30:52;;;;;;;;;;;;;;;;;;943793;27;19916;-79
2022/12/19 20:31:25;;;;;;;;;;;;;;;;;;943866;27;19928;-79
2022/12/19 20:32:33;;;;;;;;;;;;;;;;;;936319;27;19907;31
